Time;durP1;ratioP1;P1;durP2;ratioP2;P2;SDS_P1;SDS_P2;PMS_P1;PMS_P2;Temp;Humidity;BMP_temperature;BMP_pressure;BME280_temperature;BME280_humidity;BME280_pressure;Samples;Min_cycle;Max_cycle;Signal;HPM_P1;HPM_P2
2023/07/11 06:14:06;;;;;;;15.82;14.23;;;;;;;;;;6131803;23;20284;-88
2023/07/11 06:16:32;;;;;;;18.35;16.15;;;;;;;;;;6157607;23;20014;-87
2023/07/11 09:13:10;;;;;;;15.10;13.73;;;;;;;;;;6126272;23;20013;-88
2023/07/11 09:15:45;;;;;;;13.85;12.55;;;;;;;;;;6158412;23;20013;-86
2023/07/11 09:18:37;;;;;;;15.48;13.90;;;;;;;;;;6158276;23;20008;-89
2023/07/11 09:21:18;;;;;;;15.18;13.75;;;;;;;;;;6156554;23;20012;-90
2023/07/11 09:23:54;;;;;;;15.60;14.07;;;;;;;;;;6157936;23;20008;-89
2023/07/11 09:26:27;;;;;;;14.88;13.45;;;;;;;;;;6156412;23;20337;-87
2023/07/11 09:29:05;;;;;;;15.82;14.27;;;;;;;;;;6158921;23;20278;-92
2023/07/11 09:31:39;;;;;;;16.73;14.90;;;;;;;;;;6156428;23;20013;-96
2023/07/11 09:34:19;;;;;;;16.83;15.05;;;;;;;;;;6159371;23;20001;-94
2023/07/11 09:36:48;;;;;;;15.68;14.32;;;;;;;;;;6159945;23;20372;-90
2023/07/11 09:39:27;;;;;;;15.32;13.77;;;;;;;;;;6160064;23;20418;-96
2023/07/11 09:42:26;;;;;;;15.20;13.80;;;;;;;;;;6159638;23;20413;-92
2023/07/11 09:45:09;;;;;;;15.70;14.10;;;;;;;;;;6163431;23;20109;-90
2023/07/11 09:47:37;;;;;;;17.40;13.95;;;;;;;;;;6175828;23;20321;-94
2023/07/11 09:50:27;;;;;;;15.18;13.80;;;;;;;;;;6173113;23;20012;-95
2023/07/11 09:52:57;;;;;;;15.30;13.73;;;;;;;;;;6172996;23;20006;-91
2023/07/11 09:55:34;;;;;;;16.13;14.40;;;;;;;;;;6164226;23;20009;-90
2023/07/11 09:58:01;;;;;;;15.23;12.85;;;;;;;;;;6165459;23;20002;-95
2023/07/11 10:00:28;;;;;;;15.32;13.57;;;;;;;;;;6170483;23;20028;-90
2023/07/11 10:02:53;;;;;;;14.48;12.82;;;;;;;;;;6178056;23;20006;-89
2023/07/11 10:05:23;;;;;;;14.13;12.82;;;;;;;;;;6176908;23;20302;-96
2023/07/11 10:08:03;;;;;;;19.20;13.98;;;;;;;;;;6176681;23;20001;-91
2023/07/11 10:10:31;;;;;;;16.45;13.27;;;;;;;;;;6178791;23;19995;-87
2023/07/11 10:13:10;;;;;;;18.38;14.02;;;;;;;;;;6176967;23;20010;-88
2023/07/11 10:15:36;;;;;;;15.13;13.73;;;;;;;;;;6167720;23;20002;-96
2023/07/11 10:18:01;;;;;;;15.05;12.95;;;;;;;;;;6164658;23;20052;-88
2023/07/11 10:20:28;;;;;;;13.90;12.57;;;;;;;;;;6161306;23;20002;-90
2023/07/11 10:23:03;;;;;;;13.95;12.10;;;;;;;;;;6163215;23;20001;-96
2023/07/11 10:25:30;;;;;;;14.05;12.55;;;;;;;;;;6158999;23;20006;-94
2023/07/11 10:28:16;;;;;;;14.20;11.38;;;;;;;;;;6157688;23;20005;-92
2023/07/11 10:30:42;;;;;;;12.85;11.48;;;;;;;;;;6159343;23;20008;-89
2023/07/11 10:33:08;;;;;;;12.20;10.15;;;;;;;;;;6160215;23;20002;-95
2023/07/11 10:35:50;;;;;;;14.25;11.45;;;;;;;;;;6159608;23;20009;-94
2023/07/11 10:38:48;;;;;;;15.88;13.02;;;;;;;;;;6159894;23;20021;-93
2023/07/11 10:41:25;;;;;;;13.32;12.02;;;;;;;;;;6158374;23;20324;-93
2023/07/11 10:43:52;;;;;;;12.23;10.93;;;;;;;;;;6159375;23;19994;-93
2023/07/11 10:46:33;;;;;;;16.50;10.15;;;;;;;;;;6158781;23;20009;-93
2023/07/11 10:49:06;;;;;;;13.75;10.48;;;;;;;;;;6157644;23;20005;-92
2023/07/11 10:51:55;;;;;;;11.00;10.00;;;;;;;;;;6157552;23;20037;-93
2023/07/11 10:54:44;;;;;;;12.23;10.95;;;;;;;;;;6157622;23;20002;-92
2023/07/11 10:57:25;;;;;;;13.35;11.85;;;;;;;;;;6157458;23;20080;-92
2023/07/11 10:59:50;;;;;;;13.68;12.15;;;;;;;;;;6155584;23;20010;-93
2023/07/11 11:02:22;;;;;;;10.98;9.88;;;;;;;;;;6157119;23;20420;-89
2023/07/11 11:05:00;;;;;;;11.73;9.55;;;;;;;;;;6157004;23;20037;-89
2023/07/11 11:07:45;;;;;;;14.38;9.52;;;;;;;;;;6157119;23;20048;-90
2023/07/11 11:10:29;;;;;;;11.95;10.75;;;;;;;;;;6156538;23;20005;-88
2023/07/11 11:13:18;;;;;;;14.45;10.05;;;;;;;;;;6154929;23;20376;-87
2023/07/11 11:16:08;;;;;;;15.32;11.32;;;;;;;;;;6155074;23;20040;-91
2023/07/11 11:18:50;;;;;;;11.68;10.65;;;;;;;;;;6156613;23;20099;-90
2023/07/11 11:21:15;;;;;;;13.38;11.32;;;;;;;;;;6154999;23;20006;-89
2023/07/11 11:24:08;;;;;;;16.13;11.73;;;;;;;;;;6156611;23;20016;-90
2023/07/11 11:27:05;;;;;;;15.27;11.85;;;;;;;;;;6156448;23;20005;-91
2023/07/11 11:29:54;;;;;;;17.88;12.13;;;;;;;;;;6156357;23;19998;-89
2023/07/11 11:32:26;;;;;;;14.27;12.27;;;;;;;;;;6156318;23;20010;-90
2023/07/11 11:35:07;;;;;;;16.33;11.02;;;;;;;;;;6156996;23;20013;-90
2023/07/11 11:37:53;;;;;;;15.68;10.82;;;;;;;;;;6156304;23;20005;-89
2023/07/11 11:40:25;;;;;;;14.95;11.65;;;;;;;;;;6156447;23;20002;-89
2023/07/11 11:43:13;;;;;;;16.88;11.52;;;;;;;;;;6156547;23;19998;-91
2023/07/11 11:45:40;;;;;;;15.48;10.50;;;;;;;;;;6156233;23;20033;-90
2023/07/11 16:53:34;;;;;;;;;;;;;;;;;;6176153;23;19920;-89
2023/07/11 16:56:00;;;;;;;;;;;;;;;;;;6156400;23;20217;-88
2023/07/11 16:58:28;;;;;;;;;;;;;;;;;;6155387;23;19909;-89
2023/07/11 17:00:54;;;;;;;;;;;;;;;;;;6137029;23;19983;-87
2023/07/11 17:03:21;;;;;;;;;;;;;;;;;;6127242;23;19952;-86
2023/07/11 17:05:46;;;;;;;;;;;;;;;;;;6127528;23;19963;-89
2023/07/11 17:08:15;;;;;;;;;;;;;;;;;;6127120;23;19948;-90
2023/07/11 17:10:41;;;;;;;;;;;;;;;;;;6125530;23;19944;-91
2023/07/11 17:13:10;;;;;;;;;;;;;;;;;;6125798;23;19912;-91
2023/07/11 17:15:35;;;;;;;;;;;;;;;;;;6125871;23;19956;-93
2023/07/11 17:18:01;;;;;;;;;;;;;;;;;;6125901;23;19908;-92
2023/07/11 17:20:26;;;;;;;;;;;;;;;;;;6127500;23;19919;-94
2023/07/11 17:22:51;;;;;;;;;;;;;;;;;;6127642;23;20335;-91
2023/07/11 17:25:17;;;;;;;;;;;;;;;;;;6127516;23;20280;-92
2023/07/11 17:27:45;;;;;;;;;;;;;;;;;;6127434;23;19915;-91
2023/07/11 17:30:21;;;;;;;;;;;;;;;;;;6127085;23;19915;-89
2023/07/11 17:32:47;;;;;;;;;;;;;;;;;;6129932;23;19967;-84
2023/07/11 17:35:14;;;;;;;;;;;;;;;;;;6129352;23;19913;-89
2023/07/11 17:37:41;;;;;;;;;;;;;;;;;;6129062;23;20045;-90
2023/07/11 17:40:15;;;;;;;;;;;;;;;;;;6135481;23;19944;-85
2023/07/11 17:42:40;;;;;;;;;;;;;;;;;;6129186;23;19933;-84
2023/07/11 17:45:07;;;;;;;;;;;;;;;;;;6128593;23;19935;-85
2023/07/11 17:47:33;;;;;;;;;;;;;;;;;;6128836;23;20000;-87
2023/07/11 17:49:58;;;;;;;;;;;;;;;;;;6127535;23;19905;-84
2023/07/11 17:52:28;;;;;;;;;;;;;;;;;;6128869;23;19916;-83
2023/07/11 17:54:54;;;;;;;;;;;;;;;;;;6128589;23;19913;-83
2023/07/11 17:57:21;;;;;;;;;;;;;;;;;;6128519;23;19940;-83
2023/07/11 17:59:46;;;;;;;;;;;;;;;;;;6128257;23;19915;-83
2023/07/11 18:02:12;;;;;;;;;;;;;;;;;;6128596;23;19909;-83
2023/07/11 18:04:39;;;;;;;;;;;;;;;;;;6128272;23;19909;-83
2023/07/11 18:07:06;;;;;;;;;;;;;;;;;;6128580;23;19992;-84
2023/07/11 18:09:31;;;;;;;;;;;;;;;;;;6128253;23;19909;-83
2023/07/11 18:11:56;;;;;;;;;;;;;;;;;;6128376;23;19913;-83
2023/07/11 18:14:21;;;;;;;;;;;;;;;;;;6128258;23;19955;-82
2023/07/11 18:16:47;;;;;;;;;;;;;;;;;;6128537;23;19916;-83
2023/07/11 18:19:12;;;;;;;;;;;;;;;;;;6128757;23;19909;-84
2023/07/11 18:21:37;;;;;;;;;;;;;;;;;;6128099;23;20281;-83
2023/07/11 18:24:03;;;;;;;;;;;;;;;;;;6128139;23;20320;-83
2023/07/11 18:26:28;;;;;;;;;;;;;;;;;;6127950;23;19909;-82
2023/07/11 18:28:53;;;;;;;;;;;;;;;;;;6128698;23;20297;-89
2023/07/11 18:31:20;;;;;;;;;;;;;;;;;;6128419;23;19932;-85
2023/07/11 18:33:46;;;;;;;;;;;;;;;;;;6128416;23;19913;-83
2023/07/11 18:36:19;;;;;;;;;;;;;;;;;;6128237;23;20283;-82
2023/07/11 18:38:44;;;;;;;;;;;;;;;;;;6128226;23;19908;-83
2023/07/11 18:41:10;;;;;;;;;;;;;;;;;;6127741;23;19962;-81
2023/07/11 18:43:35;;;;;;;;;;;;;;;;;;6128413;23;19940;-82
2023/07/11 18:46:01;;;;;;;;;;;;;;;;;;6128219;23;19968;-87
2023/07/11 18:48:26;;;;;;;;;;;;;;;;;;6126307;23;19941;-82
2023/07/11 18:50:51;;;;;;;;;;;;;;;;;;6127872;23;19915;-82
2023/07/11 18:53:17;;;;;;;;;;;;;;;;;;6127836;23;19995;-87
2023/07/11 18:55:44;;;;;;;;;;;;;;;;;;6128311;23;19939;-85
2023/07/11 18:58:10;;;;;;;;;;;;;;;;;;6126541;23;19909;-85
2023/07/11 19:00:37;;;;;;;;;;;;;;;;;;6127753;23;19960;-85
2023/07/11 19:03:08;;;;;;;;;;;;;;;;;;6128103;23;19915;-87
2023/07/11 19:05:34;;;;;;;;;;;;;;;;;;6127839;23;20264;-84
2023/07/11 19:07:59;;;;;;;;;;;;;;;;;;6127884;23;19956;-89
2023/07/11 19:10:26;;;;;;;;;;;;;;;;;;6127729;23;19905;-85
2023/07/11 19:12:52;;;;;;;;;;;;;;;;;;6127761;23;20040;-85
2023/07/11 19:15:21;;;;;;;;;;;;;;;;;;6128053;23;19953;-89
2023/07/11 19:18:04;;;;;;;;;;;;;;;;;;6128056;23;19913;-89
2023/07/11 19:20:33;;;;;;;;;;;;;;;;;;6127984;23;19909;-88
2023/07/11 19:22:59;;;;;;;;;;;;;;;;;;6128132;23;19932;-89
2023/07/11 19:25:34;;;;;;;;;;;;;;;;;;6128285;23;19956;-87
2023/07/11 19:28:09;;;;;;;;;;;;;;;;;;6129378;23;20004;-95
2023/07/11 19:30:35;;;;;;;;;;;;;;;;;;6127502;23;19983;-95
2023/07/11 19:33:01;;;;;;;;;;;;;;;;;;6126797;23;19916;-96
2023/07/11 19:35:28;;;;;;;;;;;;;;;;;;6126737;23;19912;-95
2023/07/11 19:37:55;;;;;;;;;;;;;;;;;;6128480;23;19909;-93
2023/07/11 19:40:22;;;;;;;;;;;;;;;;;;6128566;23;20284;-93
2023/07/11 19:42:47;;;;;;;;;;;;;;;;;;6126396;23;19979;-93
2023/07/11 19:45:20;;;;;;;;;;;;;;;;;;6127684;23;20336;-94
2023/07/11 19:47:46;;;;;;;;;;;;;;;;;;6127926;23;19956;-92
2023/07/11 19:50:20;;;;;;;;;;;;;;;;;;6128064;23;19905;-93
2023/07/11 19:52:45;;;;;;;;;;;;;;;;;;6128260;23;20221;-92
2023/07/11 19:55:10;;;;;;;;;;;;;;;;;;6126056;23;19913;-94
2023/07/11 19:57:36;;;;;;;;;;;;;;;;;;6126360;23;19908;-94
2023/07/11 20:00:01;;;;;;;;;;;;;;;;;;6126469;23;19909;-94
2023/07/11 20:02:27;;;;;;;;;;;;;;;;;;6129504;23;20324;-93
2023/07/11 20:04:52;;;;;;;;;;;;;;;;;;6129183;23;19989;-92
2023/07/11 20:07:18;;;;;;;;;;;;;;;;;;6128984;23;19913;-92
2023/07/11 20:09:44;;;;;;;;;;;;;;;;;;6128220;23;19991;-94
2023/07/11 20:12:29;;;;;;;;;;;;;;;;;;6129521;23;19916;-93
2023/07/11 20:14:55;;;;;;;;;;;;;;;;;;6129987;23;19940;-95
2023/07/11 20:17:22;;;;;;;;;;;;;;;;;;6130295;23;19919;-94
2023/07/11 20:19:47;;;;;;;;;;;;;;;;;;6129194;23;20331;-95
2023/07/11 20:22:13;;;;;;;;;;;;;;;;;;6129406;23;19908;-92
2023/07/11 20:24:42;;;;;;;;;;;;;;;;;;6128617;23;19909;-94
2023/07/11 20:27:17;;;;;;;;;;;;;;;;;;6127603;23;20393;-92
2023/07/11 20:29:43;;;;;;;;;;;;;;;;;;6127771;23;19909;-92
2023/07/11 20:32:11;;;;;;;;;;;;;;;;;;6129803;23;19916;-96
2023/07/11 20:34:37;;;;;;;;;;;;;;;;;;6131043;23;19971;-93
2023/07/11 20:37:02;;;;;;;;;;;;;;;;;;6130827;23;19944;-93
2023/07/11 20:39:28;;;;;;;;;;;;;;;;;;6130407;23;19909;-92
2023/07/11 20:41:53;;;;;;;;;;;;;;;;;;6131374;23;19944;-92
2023/07/11 20:44:18;;;;;;;;;;;;;;;;;;6131375;23;19909;-91
2023/07/11 20:46:44;;;;;;;;;;;;;;;;;;6130089;23;19909;-95
2023/07/11 20:49:09;;;;;;;;;;;;;;;;;;6128749;23;19915;-93
2023/07/11 20:51:34;;;;;;;;;;;;;;;;;;6129658;23;19916;-96
2023/07/11 20:54:00;;;;;;;;;;;;;;;;;;6127874;23;20316;-93
2023/07/11 20:56:26;;;;;;;;;;;;;;;;;;6135022;23;19948;-94
2023/07/11 20:58:52;;;;;;;;;;;;;;;;;;6136254;23;20329;-93
2023/07/11 21:01:18;;;;;;;;;;;;;;;;;;6142505;23;19908;-93
2023/07/11 21:03:44;;;;;;;;;;;;;;;;;;6138669;23;19964;-93
2023/07/11 21:06:18;;;;;;;;;;;;;;;;;;6135651;23;19913;-94
2023/07/11 21:08:43;;;;;;;;;;;;;;;;;;6137440;23;19916;-94
2023/07/11 21:11:08;;;;;;;;;;;;;;;;;;6133558;23;19984;-94
2023/07/11 21:13:34;;;;;;;;;;;;;;;;;;6135128;23;19909;-93
2023/07/11 21:15:59;;;;;;;;;;;;;;;;;;6132143;23;19964;-95
2023/07/11 21:18:25;;;;;;;;;;;;;;;;;;6132409;23;19909;-96
2023/07/11 21:20:54;;;;;;;;;;;;;;;;;;6131131;23;20351;-96
2023/07/11 21:23:20;;;;;;;;;;;;;;;;;;6131774;23;19945;-95
2023/07/11 21:26:07;;;;;;;;;;;;;;;;;;6132049;23;19909;-93
2023/07/11 21:28:32;;;;;;;;;;;;;;;;;;6132093;23;19909;-94
2023/07/11 21:31:04;;;;;;;;;;;;;;;;;;6128253;23;19912;-92
2023/07/11 21:33:31;;;;;;;;;;;;;;;;;;6129872;23;19909;-94
2023/07/11 21:36:00;;;;;;;;;;;;;;;;;;6127795;23;20301;-93
2023/07/11 21:38:26;;;;;;;;;;;;;;;;;;6127663;23;19909;-93
2023/07/11 21:40:53;;;;;;;;;;;;;;;;;;6127605;23;20206;-93
2023/07/11 21:43:19;;;;;;;;;;;;;;;;;;6127691;23;19913;-93
2023/07/11 21:45:44;;;;;;;;;;;;;;;;;;6127432;23;19909;-93
2023/07/11 21:48:17;;;;;;;;;;;;;;;;;;6129090;23;20218;-93
2023/07/11 21:50:45;;;;;;;;;;;;;;;;;;6127551;23;19913;-92
2023/07/11 21:53:14;;;;;;;;;;;;;;;;;;6128138;23;19909;-93
2023/07/11 21:55:41;;;;;;;;;;;;;;;;;;6074976;23;19913;-92
2023/07/11 21:58:14;;;;;;;;;;;;;;;;;;6085787;23;19909;-93
2023/07/11 22:00:42;;;;;;;;;;;;;;;;;;6085729;23;20028;-93
2023/07/11 22:03:07;;;;;;;;;;;;;;;;;;6087317;23;19919;-92
2023/07/11 22:05:33;;;;;;;;;;;;;;;;;;6087525;23;19910;-93
2023/07/11 22:07:58;;;;;;;;;;;;;;;;;;6085511;23;20319;-93
2023/07/11 22:10:24;;;;;;;;;;;;;;;;;;6087432;23;20313;-92
2023/07/11 22:12:49;;;;;;;;;;;;;;;;;;6079645;23;20466;-91
2023/07/11 22:15:14;;;;;;;;;;;;;;;;;;6077770;23;20309;-92
2023/07/11 22:17:40;;;;;;;;;;;;;;;;;;6077809;23;19905;-92
2023/07/11 22:20:19;;;;;;;;;;;;;;;;;;6078287;23;19917;-91
2023/07/11 22:22:44;;;;;;;;;;;;;;;;;;6074748;23;20305;-94
2023/07/11 22:25:10;;;;;;;;;;;;;;;;;;6074631;23;19909;-92
2023/07/11 22:27:37;;;;;;;;;;;;;;;;;;6100221;23;19976;-93
2023/07/11 22:30:03;;;;;;;;;;;;;;;;;;6075253;23;20309;-93
2023/07/11 22:32:28;;;;;;;;;;;;;;;;;;6051189;23;19991;-92
2023/07/11 22:34:53;;;;;;;;;;;;;;;;;;6075009;23;19909;-92
2023/07/11 22:37:19;;;;;;;;;;;;;;;;;;6074835;23;19925;-92
2023/07/11 22:39:44;;;;;;;;;;;;;;;;;;6075392;23;20233;-94
2023/07/11 22:42:09;;;;;;;;;;;;;;;;;;6100332;23;19956;-92
